createdAt,value
2018-09-11T00:00:17.332Z,23.15
2018-09-11T00:01:17.910Z,23.12
2018-09-11T00:02:18.493Z,23.17
2018-09-11T00:03:19.085Z,23.17
2018-09-11T00:04:19.665Z,23.21
2018-09-11T00:05:20.251Z,23.20
2018-09-11T00:06:20.885Z,23.13
2018-09-11T00:07:21.521Z,23.20
2018-09-11T00:08:22.102Z,23.15
2018-09-11T00:09:22.691Z,23.21
2018-09-11T00:10:23.274Z,23.20
2018-09-11T00:12:08.426Z,23.23
2018-09-11T00:13:09.011Z,23.15
2018-09-11T00:14:09.600Z,23.10
2018-09-11T00:15:10.189Z,23.17
2018-09-11T00:16:10.818Z,23.13
2018-09-11T00:17:11.405Z,23.12
2018-09-11T00:18:11.990Z,23.17
2018-09-11T00:19:12.578Z,23.17
2018-09-11T00:20:13.165Z,23.13
2018-09-11T00:21:13.748Z,23.15
2018-09-11T00:22:14.333Z,23.15
2018-09-11T00:23:14.917Z,23.17
2018-09-11T00:24:15.553Z,23.13
2018-09-11T00:25:16.138Z,23.15
2018-09-11T00:26:16.723Z,23.12
2018-09-11T00:27:17.349Z,23.15
2018-09-11T00:28:17.937Z,23.08
2018-09-11T00:29:18.522Z,23.15
2018-09-11T00:30:19.145Z,23.09
2018-09-11T00:31:19.734Z,23.08
2018-09-11T00:32:20.321Z,23.08
2018-09-11T00:33:20.897Z,23.08
2018-09-11T00:34:21.483Z,23.13
2018-09-11T00:35:22.070Z,23.02
2018-09-11T00:37:07.171Z,23.02
2018-09-11T00:38:07.760Z,23.02
2018-09-11T00:39:08.398Z,23.00
2018-09-11T00:40:08.982Z,23.06
2018-09-11T00:41:09.566Z,23.08
2018-09-11T00:42:10.153Z,23.00
2018-09-11T00:43:10.739Z,23.08
2018-09-11T00:44:11.316Z,22.99
2018-09-11T00:45:11.953Z,23.00
2018-09-11T00:46:12.540Z,23.08
2018-09-11T00:47:13.125Z,23.00
2018-09-11T00:48:13.760Z,23.05
2018-09-11T00:49:14.396Z,23.09
2018-09-11T00:50:14.981Z,23.02
2018-09-11T00:51:15.570Z,23.08
2018-09-11T00:52:16.152Z,23.05
2018-09-11T00:53:16.732Z,23.03
2018-09-11T00:54:17.319Z,23.02
2018-09-11T00:55:17.954Z,23.02
2018-09-11T00:56:18.536Z,23.06
2018-09-11T00:57:19.122Z,23.06
2018-09-11T00:58:19.709Z,23.02
2018-09-11T00:59:20.286Z,23.00
2018-09-11T01:00:20.868Z,23.00
2018-09-11T01:02:06.021Z,22.96
2018-09-11T01:03:06.607Z,23.00
2018-09-11T01:04:07.195Z,22.98
2018-09-11T01:05:07.828Z,23.03
2018-09-11T01:06:08.411Z,22.94
2018-09-11T01:07:08.999Z,22.99
2018-09-11T01:08:09.584Z,22.96
2018-09-11T01:09:10.163Z,22.91
2018-09-11T01:10:10.763Z,22.91
2018-09-11T01:11:11.333Z,22.94
2018-09-11T01:12:11.972Z,22.91
2018-09-11T01:13:12.557Z,22.88
2018-09-11T01:14:13.141Z,22.90
2018-09-11T01:15:13.728Z,22.94
2018-09-11T01:16:14.354Z,22.85
2018-09-11T01:17:14.935Z,22.85
2018-09-11T01:18:15.524Z,22.88
2018-09-11T01:19:16.112Z,22.88
2018-09-11T01:20:16.690Z,22.87
2018-09-11T01:21:17.315Z,22.87
2018-09-11T01:22:17.904Z,22.85
2018-09-11T01:23:18.538Z,22.87
2018-09-11T01:24:19.171Z,22.90
2018-09-11T01:25:19.756Z,22.85
2018-09-11T01:27:04.861Z,22.87
2018-09-11T01:28:05.492Z,22.83
2018-09-11T01:29:06.079Z,22.81
2018-09-11T01:30:11.768Z,22.81
2018-09-11T01:31:12.405Z,22.83
2018-09-11T01:32:12.991Z,22.84
2018-09-11T01:33:13.577Z,22.80
2018-09-11T01:34:14.169Z,22.85
2018-09-11T01:35:14.801Z,22.84
2018-09-11T01:36:15.384Z,22.78
2018-09-11T01:37:15.978Z,22.73
2018-09-11T01:38:16.601Z,22.80
2018-09-11T01:39:17.188Z,22.83
2018-09-11T01:40:17.818Z,22.78
2018-09-11T01:41:18.449Z,22.78
2018-09-11T01:42:19.041Z,22.80
2018-09-11T01:43:19.673Z,22.76
2018-09-11T01:44:20.310Z,22.72
2018-09-11T01:45:20.886Z,22.85
2018-09-11T01:46:21.471Z,22.78
2018-09-11T01:47:22.056Z,22.78
2018-09-11T01:48:22.688Z,22.72
2018-09-11T01:49:23.266Z,22.80
2018-09-11T01:50:23.847Z,22.70
2018-09-11T01:52:09.005Z,22.78
2018-09-11T01:53:09.588Z,22.75
2018-09-11T01:54:10.175Z,22.85
2018-09-11T01:55:10.761Z,22.84
2018-09-11T01:56:11.349Z,22.76
2018-09-11T01:57:11.982Z,22.70
2018-09-11T01:58:12.570Z,22.81
2018-09-11T01:59:13.199Z,22.84
2018-09-11T02:00:13.788Z,22.70
2018-09-11T02:01:14.419Z,22.68
2018-09-11T02:02:15.002Z,22.75
2018-09-11T02:03:15.592Z,22.75
2018-09-11T02:04:16.178Z,22.72
2018-09-11T02:05:16.762Z,22.70
2018-09-11T02:06:17.342Z,22.72
2018-09-11T02:07:17.978Z,22.73
2018-09-11T02:08:18.560Z,22.75
2018-09-11T02:09:19.146Z,22.73
2018-09-11T02:10:19.776Z,22.73
2018-09-11T02:11:20.367Z,22.72
2018-09-11T02:12:20.950Z,22.75
2018-09-11T02:13:21.527Z,22.69
2018-09-11T02:14:22.110Z,22.76
2018-09-11T02:15:22.690Z,22.76
2018-09-11T02:17:07.843Z,22.70
2018-09-11T02:18:08.433Z,22.75
2018-09-11T02:19:09.066Z,22.72
2018-09-11T02:20:09.652Z,22.75
2018-09-11T02:21:10.239Z,22.80
2018-09-11T02:22:10.825Z,22.78
2018-09-11T02:23:11.411Z,22.73
2018-09-11T02:24:11.991Z,22.73
2018-09-11T02:25:12.583Z,22.72
2018-09-11T02:26:13.164Z,22.75
2018-09-11T02:27:13.749Z,22.70
2018-09-11T02:28:14.337Z,22.76
2018-09-11T02:29:14.920Z,22.70
2018-09-11T02:30:15.506Z,22.70
2018-09-11T02:31:16.086Z,22.75
2018-09-11T02:32:16.668Z,22.70
2018-09-11T02:33:17.305Z,22.70
2018-09-11T02:34:17.986Z,22.69
2018-09-11T02:35:18.567Z,22.68
2018-09-11T02:36:19.204Z,22.68
2018-09-11T02:37:19.789Z,22.66
2018-09-11T02:38:20.382Z,22.65
2018-09-11T02:39:21.001Z,22.62
2018-09-11T02:40:21.580Z,22.68
2018-09-11T02:42:06.687Z,22.72
2018-09-11T02:43:07.275Z,22.68
2018-09-11T02:44:07.859Z,22.59
2018-09-11T02:45:08.497Z,22.60
2018-09-11T02:46:09.085Z,22.60
2018-09-11T02:47:09.670Z,22.60
2018-09-11T02:48:10.256Z,22.59
2018-09-11T02:49:10.836Z,22.62
2018-09-11T02:50:11.476Z,22.69
2018-09-11T02:51:12.108Z,22.66
2018-09-11T02:52:12.693Z,22.65
2018-09-11T02:53:13.278Z,22.66
2018-09-11T02:54:13.865Z,22.66
2018-09-11T02:55:14.450Z,22.59
2018-09-11T02:56:15.032Z,22.57
2018-09-11T02:57:15.662Z,22.63
2018-09-11T02:58:16.248Z,22.55
2018-09-11T02:59:16.880Z,22.60
2018-09-11T03:00:17.461Z,22.63
2018-09-11T03:01:18.046Z,22.65
2018-09-11T03:02:18.632Z,22.65
2018-09-11T03:03:19.213Z,22.60
2018-09-11T03:04:19.842Z,22.62
2018-09-11T03:05:20.425Z,22.62
2018-09-11T03:07:05.529Z,22.54
2018-09-11T03:08:06.168Z,22.63
2018-09-11T03:09:06.792Z,22.62
2018-09-11T03:10:07.377Z,22.57
2018-09-11T03:11:07.960Z,22.59
2018-09-11T03:12:08.694Z,22.59
2018-09-11T03:13:09.282Z,22.62
2018-09-11T03:14:09.860Z,22.65
2018-09-11T03:15:10.496Z,22.63
2018-09-11T03:16:11.077Z,22.54
2018-09-11T03:17:11.664Z,22.54
2018-09-11T03:18:12.299Z,22.63
2018-09-11T03:19:12.886Z,22.54
2018-09-11T03:20:13.473Z,22.63
2018-09-11T03:21:14.049Z,22.65
2018-09-11T03:22:14.632Z,22.62
2018-09-11T03:23:15.219Z,22.63
2018-09-11T03:24:15.802Z,22.59
2018-09-11T03:25:16.382Z,22.63
2018-09-11T03:26:17.021Z,22.62
2018-09-11T03:27:17.655Z,22.63
2018-09-11T03:28:18.236Z,22.59
2018-09-11T03:29:18.813Z,22.59
2018-09-11T03:30:19.396Z,22.55
2018-09-11T03:32:04.504Z,22.65
2018-09-11T03:33:05.089Z,22.47
2018-09-11T03:34:05.675Z,22.62
2018-09-11T03:35:06.261Z,22.62
2018-09-11T03:36:06.848Z,22.60
2018-09-11T03:37:07.433Z,22.55
2018-09-11T03:38:08.020Z,22.63
2018-09-11T03:39:08.654Z,22.62
2018-09-11T03:40:09.293Z,22.59
2018-09-11T03:41:09.874Z,22.60
2018-09-11T03:42:10.470Z,22.66
2018-09-11T03:43:11.045Z,22.59
2018-09-11T03:44:11.643Z,22.65
2018-09-11T03:45:12.265Z,22.55
2018-09-11T03:46:12.851Z,22.50
2018-09-11T03:47:13.429Z,22.51
2018-09-11T03:48:14.021Z,22.55
2018-09-11T03:49:14.648Z,22.50
2018-09-11T03:50:15.231Z,22.51
2018-09-11T03:51:15.873Z,22.50
2018-09-11T03:52:16.449Z,22.51
2018-09-11T03:53:17.038Z,22.48
2018-09-11T03:54:17.614Z,22.55
2018-09-11T03:55:18.194Z,22.55
2018-09-11T03:57:03.304Z,22.54
2018-09-11T03:58:03.937Z,22.51
2018-09-11T03:59:04.615Z,22.54
2018-09-11T04:00:05.116Z,22.54
2018-09-11T04:01:05.698Z,22.50
2018-09-11T04:02:06.284Z,22.51
2018-09-11T04:03:06.919Z,22.54
2018-09-11T04:04:07.499Z,22.51
2018-09-11T04:05:08.087Z,22.50
2018-09-11T04:06:08.668Z,22.44
2018-09-11T04:07:09.306Z,22.50
2018-09-11T04:08:09.931Z,22.54
2018-09-11T04:09:10.518Z,22.47
2018-09-11T04:10:11.101Z,22.48
2018-09-11T04:11:11.679Z,22.48
2018-09-11T04:12:12.263Z,22.51
2018-09-11T04:13:12.855Z,22.47
2018-09-11T04:14:13.436Z,22.51
2018-09-11T04:15:14.064Z,22.44
2018-09-11T04:16:14.652Z,22.48
2018-09-11T04:17:15.239Z,22.45
2018-09-11T04:18:15.815Z,22.45
2018-09-11T04:19:16.448Z,22.39
2018-09-11T04:20:17.035Z,22.48
2018-09-11T04:22:02.137Z,22.50
2018-09-11T04:23:02.726Z,22.48
2018-09-11T04:24:03.324Z,22.45
2018-09-11T04:25:03.899Z,22.44
2018-09-11T04:26:04.534Z,22.50
2018-09-11T04:27:05.121Z,22.47
2018-09-11T04:28:05.706Z,22.55
2018-09-11T04:29:06.294Z,22.39
2018-09-11T04:30:06.879Z,22.48
2018-09-11T04:31:07.459Z,22.48
2018-09-11T04:32:08.092Z,22.45
2018-09-11T04:33:08.678Z,22.44
2018-09-11T04:34:09.262Z,22.44
2018-09-11T04:35:09.853Z,22.38
2018-09-11T04:36:10.470Z,22.43
2018-09-11T04:37:11.012Z,22.41
2018-09-11T04:38:11.649Z,22.38
2018-09-11T04:39:12.230Z,22.39
2018-09-11T04:40:12.813Z,22.36
2018-09-11T04:41:13.398Z,22.43
2018-09-11T04:42:13.986Z,22.38
2018-09-11T04:43:14.566Z,22.41
2018-09-11T04:44:15.204Z,22.47
2018-09-11T04:45:15.783Z,22.44
2018-09-11T04:47:00.887Z,22.47
2018-09-11T04:48:01.474Z,22.41
2018-09-11T04:49:07.113Z,22.36
2018-09-11T04:50:07.749Z,22.38
2018-09-11T04:51:08.343Z,22.44
2018-09-11T04:52:08.968Z,22.45
2018-09-11T04:53:09.554Z,22.43
2018-09-11T04:54:10.334Z,22.45
2018-09-11T04:55:10.921Z,22.43
2018-09-11T04:56:11.621Z,22.38
2018-09-11T04:57:12.132Z,22.39
2018-09-11T04:58:12.719Z,22.44
2018-09-11T04:59:13.306Z,22.39
2018-09-11T05:00:13.941Z,22.43
2018-09-11T05:01:14.528Z,22.41
2018-09-11T05:02:15.203Z,22.41
2018-09-11T05:03:15.791Z,22.35
2018-09-11T05:04:16.376Z,22.36
2018-09-11T05:05:16.951Z,22.39
2018-09-11T05:06:17.539Z,22.39
2018-09-11T05:07:18.174Z,22.39
2018-09-11T05:08:18.760Z,22.36
2018-09-11T05:09:19.337Z,22.43
2018-09-11T05:10:19.968Z,22.35
2018-09-11T05:12:05.069Z,22.35
2018-09-11T05:13:05.656Z,22.35
2018-09-11T05:14:06.242Z,22.36
2018-09-11T05:15:06.830Z,22.35
2018-09-11T05:16:07.460Z,22.33
2018-09-11T05:17:08.047Z,22.33
2018-09-11T05:18:08.629Z,22.33
2018-09-11T05:19:09.267Z,22.36
2018-09-11T05:20:09.803Z,22.43
2018-09-11T05:21:10.381Z,22.38
2018-09-11T05:22:10.964Z,22.29
2018-09-11T05:23:11.640Z,22.35
2018-09-11T05:24:12.222Z,22.22
2018-09-11T05:25:12.806Z,22.33
2018-09-11T05:26:13.387Z,22.35
2018-09-11T05:27:14.022Z,22.33
2018-09-11T05:28:14.606Z,22.36
2018-09-11T05:29:15.191Z,22.35
2018-09-11T05:30:15.820Z,22.28
2018-09-11T05:31:16.506Z,22.39
2018-09-11T05:32:17.090Z,22.35
2018-09-11T05:33:17.673Z,22.38
2018-09-11T05:34:18.358Z,22.25
2018-09-11T05:35:18.939Z,22.38
2018-09-11T05:37:04.142Z,22.36
2018-09-11T05:38:04.727Z,22.36
2018-09-11T05:39:05.328Z,22.22
2018-09-11T05:40:05.899Z,22.43
2018-09-11T05:41:06.485Z,22.26
2018-09-11T05:42:07.070Z,22.29
2018-09-11T05:43:07.656Z,22.28
2018-09-11T05:44:08.236Z,22.26
2018-09-11T05:45:08.825Z,22.26
2018-09-11T05:46:09.460Z,22.26
2018-09-11T05:47:10.123Z,22.29
2018-09-11T05:48:10.673Z,22.28
2018-09-11T05:49:11.259Z,22.23
2018-09-11T05:50:11.842Z,22.25
2018-09-11T05:51:12.421Z,22.35
2018-09-11T05:52:13.056Z,22.26
2018-09-11T05:53:13.886Z,22.26
2018-09-11T05:54:14.470Z,22.28
2018-09-11T05:55:15.048Z,22.20
2018-09-11T05:56:15.637Z,22.25
2018-09-11T05:57:16.223Z,22.23
2018-09-11T05:58:16.859Z,22.23
2018-09-11T05:59:17.440Z,22.20
2018-09-11T06:00:18.021Z,22.22
2018-09-11T06:02:03.119Z,22.25
2018-09-11T06:03:03.758Z,22.20
2018-09-11T06:04:04.392Z,22.23
2018-09-11T06:05:04.978Z,22.20
2018-09-11T06:06:05.564Z,22.25
2018-09-11T06:07:06.149Z,22.23
2018-09-11T06:08:06.783Z,22.22
2018-09-11T06:09:07.359Z,22.22
2018-09-11T06:10:07.947Z,22.22
2018-09-11T06:11:08.534Z,22.23
2018-09-11T06:12:09.210Z,22.22
2018-09-11T06:13:09.798Z,22.23
2018-09-11T06:14:10.383Z,22.23
2018-09-11T06:15:10.968Z,22.22
2018-09-11T06:16:11.624Z,22.26
2018-09-11T06:17:12.128Z,22.17
2018-09-11T06:18:12.716Z,22.17
2018-09-11T06:19:13.350Z,22.17
2018-09-11T06:20:13.929Z,22.20
2018-09-11T06:21:14.515Z,22.20
2018-09-11T06:22:15.100Z,22.25
2018-09-11T06:23:15.692Z,22.15
2018-09-11T06:24:16.323Z,22.22
2018-09-11T06:25:16.912Z,22.23
2018-09-11T06:27:02.060Z,22.10
2018-09-11T06:28:02.697Z,22.10
2018-09-11T06:29:03.335Z,22.13
2018-09-11T06:30:03.867Z,22.10
2018-09-11T06:31:04.452Z,22.15
2018-09-11T06:32:05.037Z,22.18
2018-09-11T06:33:05.622Z,22.17
2018-09-11T06:34:06.199Z,22.15
2018-09-11T06:35:06.787Z,22.15
2018-09-11T06:36:07.366Z,22.15
2018-09-11T06:37:07.954Z,22.11
2018-09-11T06:38:08.542Z,22.14
2018-09-11T06:39:09.124Z,22.08
2018-09-11T06:40:09.709Z,22.17
2018-09-11T06:41:10.396Z,22.13
2018-09-11T06:42:10.920Z,22.14
2018-09-11T06:43:11.508Z,22.11
2018-09-11T06:44:12.139Z,22.10
2018-09-11T06:45:12.774Z,22.10
2018-09-11T06:46:13.358Z,22.10
2018-09-11T06:47:13.943Z,22.13
2018-09-11T06:48:14.527Z,22.11
2018-09-11T06:49:15.108Z,22.13
2018-09-11T06:50:15.691Z,22.15
2018-09-11T06:52:00.794Z,22.14
2018-09-11T06:53:01.381Z,22.08
2018-09-11T06:54:01.967Z,22.14
2018-09-11T06:55:02.553Z,22.14
2018-09-11T06:56:03.146Z,22.10
2018-09-11T06:57:03.880Z,22.13
2018-09-11T06:58:04.462Z,22.15
2018-09-11T06:59:05.058Z,22.15
2018-09-11T07:00:05.634Z,22.14
2018-09-11T07:01:06.214Z,22.14
2018-09-11T07:02:06.817Z,22.15
2018-09-11T07:03:07.388Z,22.10
2018-09-11T07:04:08.024Z,22.13
2018-09-11T07:05:08.609Z,22.14
2018-09-11T07:06:09.195Z,22.14
2018-09-11T07:07:09.820Z,22.14
2018-09-11T07:08:10.409Z,22.11
2018-09-11T07:09:10.991Z,22.17
2018-09-11T07:10:11.576Z,22.10
2018-09-11T07:11:12.161Z,22.18
2018-09-11T07:12:12.794Z,22.11
2018-09-11T07:13:13.424Z,22.22
2018-09-11T07:14:14.010Z,22.13
2018-09-11T07:15:14.592Z,22.15
2018-09-11T07:16:59.889Z,22.13
2018-09-11T07:18:00.476Z,22.18
2018-09-11T07:19:01.060Z,22.11
2018-09-11T07:20:01.859Z,22.15
2018-09-11T07:21:02.280Z,22.15
2018-09-11T07:22:02.915Z,22.20
2018-09-11T07:23:03.503Z,22.14
2018-09-11T07:24:04.089Z,22.17
2018-09-11T07:25:04.672Z,22.10
2018-09-11T07:26:05.310Z,22.18
2018-09-11T07:27:05.836Z,22.06
2018-09-11T07:28:06.422Z,22.15
2018-09-11T07:29:07.006Z,22.18
2018-09-11T07:30:07.592Z,22.14
2018-09-11T07:31:08.222Z,22.18
2018-09-11T07:32:08.802Z,22.17
2018-09-11T07:33:09.393Z,22.10
2018-09-11T07:34:09.976Z,22.22
2018-09-11T07:35:10.600Z,22.14
2018-09-11T07:36:11.191Z,22.18
2018-09-11T07:37:11.869Z,22.20
2018-09-11T07:38:12.549Z,22.11
2018-09-11T07:39:13.133Z,22.17
2018-09-11T07:40:13.721Z,22.17
2018-09-11T07:41:58.862Z,22.18
2018-09-11T07:42:59.449Z,22.18
2018-09-11T07:44:00.035Z,22.15
2018-09-11T07:45:00.621Z,22.13
2018-09-11T07:46:01.207Z,22.14
2018-09-11T07:47:01.843Z,22.17
2018-09-11T07:48:02.428Z,22.17
2018-09-11T07:49:03.012Z,22.20
2018-09-11T07:50:03.605Z,22.18
2018-09-11T07:51:04.191Z,22.13
2018-09-11T07:52:04.778Z,22.18
2018-09-11T07:53:05.373Z,22.13
2018-09-11T07:54:06.011Z,22.22
2018-09-11T07:55:06.600Z,22.18
2018-09-11T07:56:07.191Z,22.22
2018-09-11T07:57:07.827Z,22.23
2018-09-11T07:58:08.483Z,22.26
2018-09-11T07:59:09.001Z,22.36
2018-09-11T08:00:09.592Z,22.45
2018-09-11T08:01:10.178Z,22.47
2018-09-11T08:02:10.817Z,22.44
2018-09-11T08:03:11.502Z,22.41
2018-09-11T08:04:11.994Z,22.48
2018-09-11T08:05:12.622Z,22.48
2018-09-11T08:06:57.688Z,22.51
2018-09-11T08:07:58.324Z,22.53
2018-09-11T08:08:58.916Z,22.50
2018-09-11T08:09:59.508Z,22.57
2018-09-11T08:11:00.247Z,22.59
2018-09-11T08:12:00.897Z,22.63
2018-09-11T08:13:01.477Z,22.55
2018-09-11T08:14:02.063Z,22.63
2018-09-11T08:15:02.651Z,22.63
2018-09-11T08:16:03.241Z,22.63
2018-09-11T08:17:03.877Z,22.63
2018-09-11T08:18:04.519Z,22.63
2018-09-11T08:19:05.106Z,22.69
2018-09-11T08:20:05.696Z,22.66
2018-09-11T08:21:06.276Z,22.69
2018-09-11T08:22:06.861Z,22.70
2018-09-11T08:23:07.453Z,22.75
2018-09-11T08:24:08.042Z,22.69
2018-09-11T08:25:08.626Z,22.69
2018-09-11T08:26:09.224Z,22.72
2018-09-11T08:27:09.812Z,22.69
2018-09-11T08:28:10.396Z,22.81
2018-09-11T08:29:11.144Z,22.75
2018-09-11T08:30:11.715Z,22.73
2018-09-11T08:31:56.824Z,22.80
2018-09-11T08:32:57.465Z,22.81
2018-09-11T08:33:58.058Z,22.81
2018-09-11T08:34:58.645Z,22.87
2018-09-11T08:35:59.235Z,22.90
2018-09-11T08:36:59.873Z,22.90
2018-09-11T08:38:00.465Z,22.85
2018-09-11T08:39:01.056Z,22.88
2018-09-11T08:40:01.746Z,22.85
2018-09-11T08:41:02.388Z,22.91
2018-09-11T08:42:02.976Z,22.99
2018-09-11T08:43:03.612Z,22.91
2018-09-11T08:44:04.198Z,23.00
2018-09-11T08:45:04.789Z,23.05
2018-09-11T08:46:05.425Z,23.06
2018-09-11T08:47:06.011Z,23.06
2018-09-11T08:48:06.602Z,23.08
2018-09-11T08:49:07.188Z,22.94
2018-09-11T08:50:07.771Z,23.00
2018-09-11T08:51:08.415Z,23.06
2018-09-11T08:52:09.053Z,23.13
2018-09-11T08:53:09.591Z,23.18
2018-09-11T08:54:10.175Z,23.17
2018-09-11T08:55:10.814Z,23.23
2018-09-11T08:56:55.923Z,23.18
2018-09-11T08:57:56.511Z,23.15
2018-09-11T08:58:57.110Z,23.13
2018-09-11T08:59:57.733Z,23.20
2018-09-11T09:00:58.323Z,23.23
2018-09-11T09:01:58.911Z,23.23
2018-09-11T09:02:59.506Z,23.21
2018-09-11T09:04:00.136Z,23.28
2018-09-11T09:05:00.725Z,23.27
2018-09-11T09:06:01.310Z,23.31
2018-09-11T09:07:01.897Z,23.39
2018-09-11T09:08:02.486Z,23.32
2018-09-11T09:09:03.076Z,23.44
2018-09-11T09:10:03.739Z,23.47
2018-09-11T09:11:04.350Z,23.39
2018-09-11T09:12:04.937Z,23.43
2018-09-11T09:13:05.529Z,23.46
2018-09-11T09:14:06.115Z,23.51
2018-09-11T09:15:06.704Z,23.47
2018-09-11T09:16:07.296Z,23.55
2018-09-11T09:17:07.883Z,23.54
2018-09-11T09:18:08.524Z,23.55
2018-09-11T09:19:09.107Z,23.54
2018-09-11T09:20:09.702Z,23.55
2018-09-11T09:21:54.803Z,23.56
2018-09-11T09:22:55.393Z,23.63
2018-09-11T09:23:55.979Z,23.51
2018-09-11T09:24:56.568Z,23.63
2018-09-11T09:25:57.157Z,23.68
2018-09-11T09:26:57.792Z,23.65
2018-09-11T09:27:58.383Z,23.73
2018-09-11T09:28:58.973Z,23.71
2018-09-11T09:29:59.613Z,23.68
2018-09-11T09:31:00.197Z,23.74
2018-09-11T09:32:00.838Z,23.76
2018-09-11T09:33:01.431Z,23.76
2018-09-11T09:34:02.023Z,23.74
2018-09-11T09:35:02.762Z,23.78
2018-09-11T09:36:03.350Z,23.81
2018-09-11T09:37:04.062Z,23.83
2018-09-11T09:38:04.530Z,23.81
2018-09-11T09:39:05.124Z,23.81
2018-09-11T09:40:05.715Z,23.87
2018-09-11T09:41:06.346Z,23.84
2018-09-11T09:42:06.938Z,23.88
2018-09-11T09:43:07.528Z,23.95
2018-09-11T09:44:08.195Z,23.92
2018-09-11T09:45:08.743Z,23.91
2018-09-11T09:46:53.998Z,23.98
2018-09-11T09:47:54.594Z,23.92
2018-09-11T09:48:55.177Z,24.02
2018-09-11T09:49:55.768Z,23.98
2018-09-11T09:50:56.563Z,24.01
2018-09-11T09:51:56.995Z,24.03
2018-09-11T09:52:57.635Z,24.03
2018-09-11T09:53:58.222Z,24.05
2018-09-11T09:54:58.813Z,24.06
2018-09-11T09:55:59.407Z,24.06
2018-09-11T09:57:00.043Z,24.08
2018-09-11T09:58:00.639Z,24.11
2018-09-11T09:59:01.278Z,24.14
2018-09-11T10:00:01.868Z,24.11
2018-09-11T10:01:02.452Z,24.20
2018-09-11T10:02:03.094Z,24.18
2018-09-11T10:03:03.685Z,24.17
2018-09-11T10:04:04.278Z,24.24
2018-09-11T10:05:04.869Z,24.23
2018-09-11T10:06:05.461Z,24.29
2018-09-11T10:07:06.099Z,24.28
2018-09-11T10:08:06.690Z,24.28
2018-09-11T10:09:07.280Z,24.28
2018-09-11T10:10:07.864Z,24.39
2018-09-11T10:11:53.314Z,24.38
2018-09-11T10:12:53.818Z,24.40
2018-09-11T10:13:54.413Z,24.38
2018-09-11T10:14:55.006Z,24.36
2018-09-11T10:15:55.598Z,24.50
2018-09-11T10:16:56.242Z,24.51
2018-09-11T10:17:56.832Z,24.50
2018-09-11T10:18:57.428Z,24.53
2018-09-11T10:19:58.070Z,24.54
2018-09-11T10:20:58.703Z,24.47
2018-09-11T10:21:59.340Z,24.48
2018-09-11T10:22:59.934Z,24.53
2018-09-11T10:24:00.576Z,24.48
2018-09-11T10:25:01.170Z,24.61
2018-09-11T10:26:01.764Z,24.60
2018-09-11T10:27:02.351Z,24.65
2018-09-11T10:28:02.945Z,24.69
2018-09-11T10:29:03.538Z,24.60
2018-09-11T10:30:04.127Z,24.73
2018-09-11T10:31:04.718Z,24.73
2018-09-11T10:32:05.316Z,24.73
2018-09-11T10:33:05.905Z,24.76
2018-09-11T10:34:06.487Z,24.77
2018-09-11T10:35:07.133Z,24.80
2018-09-11T10:36:52.293Z,24.86
2018-09-11T10:37:52.887Z,24.88
2018-09-11T10:38:53.483Z,25.01
2018-09-11T10:39:54.080Z,25.07
2018-09-11T10:40:54.674Z,24.96
2018-09-11T10:41:55.270Z,25.11
2018-09-11T10:42:55.914Z,25.07
2018-09-11T10:43:56.503Z,25.10
2018-09-11T10:44:57.169Z,25.14
2018-09-11T10:45:57.692Z,25.14
2018-09-11T10:46:58.284Z,25.17
2018-09-11T10:47:58.884Z,25.14
2018-09-11T10:48:59.477Z,25.25
2018-09-11T10:50:00.072Z,25.18
2018-09-11T10:51:00.664Z,25.38
2018-09-11T10:52:01.258Z,25.32
2018-09-11T10:53:01.860Z,25.36
2018-09-11T10:54:02.454Z,25.40
2018-09-11T10:55:03.098Z,25.38
2018-09-11T10:56:03.743Z,25.44
2018-09-11T10:57:04.343Z,25.47
2018-09-11T10:58:04.984Z,25.59
2018-09-11T10:59:05.629Z,25.62
2018-09-11T11:00:28.069Z,25.66
2018-09-11T11:01:28.683Z,25.63
2018-09-11T11:02:29.284Z,25.75
2018-09-11T11:03:29.885Z,25.83
2018-09-11T11:04:30.484Z,25.81
2018-09-11T11:05:31.084Z,25.83
2018-09-11T11:06:31.692Z,25.85
2018-09-11T11:07:32.284Z,25.87
2018-09-11T11:08:32.884Z,25.95
2018-09-11T11:09:33.487Z,26.02
2018-09-11T11:10:34.082Z,26.15
2018-09-11T11:11:34.689Z,26.10
2018-09-11T11:12:35.294Z,26.16
2018-09-11T11:13:35.904Z,26.23
2018-09-11T11:14:36.540Z,26.28
2018-09-11T11:15:37.192Z,26.31
2018-09-11T11:16:37.994Z,26.33
2018-09-11T11:17:38.598Z,26.43
2018-09-11T11:18:39.247Z,26.43
2018-09-11T11:19:39.855Z,26.38
2018-09-11T11:20:40.457Z,26.51
2018-09-11T11:21:41.065Z,26.53
2018-09-11T11:22:41.667Z,26.60
2018-09-11T11:23:42.311Z,26.58
2018-09-11T11:25:27.439Z,26.68
2018-09-11T11:26:28.044Z,26.78
2018-09-11T11:27:28.651Z,26.81
2018-09-11T11:28:29.249Z,26.90
2018-09-11T11:30:49.368Z,27.05
2018-09-11T11:32:51.649Z,27.07
2018-09-11T11:33:52.344Z,27.12
2018-09-11T11:34:52.948Z,27.26
2018-09-11T11:35:53.617Z,27.22
2018-09-11T11:36:54.326Z,27.33
2018-09-11T11:37:54.754Z,27.37
2018-09-11T11:38:55.363Z,27.40
2018-09-11T11:39:55.962Z,27.47
2018-09-11T11:40:56.566Z,27.51
2018-09-11T11:41:57.172Z,27.65
2018-09-11T11:42:57.777Z,27.65
2018-09-11T11:43:58.381Z,27.70
2018-09-11T11:44:58.980Z,27.80
2018-09-11T11:45:59.625Z,27.86
2018-09-11T11:47:00.280Z,28.04
2018-09-11T11:48:00.888Z,28.17
2018-09-11T11:49:01.583Z,28.29
2018-09-11T11:50:02.240Z,28.42
2018-09-11T11:51:02.845Z,28.52
2018-09-11T11:52:03.447Z,28.69
2018-09-11T11:53:04.050Z,28.76
2018-09-11T11:54:04.654Z,28.84
2018-09-11T11:55:49.779Z,28.97
2018-09-11T11:56:50.384Z,29.13
2018-09-11T11:57:50.992Z,29.19
2018-09-11T11:58:51.597Z,29.27
2018-09-11T11:59:52.201Z,29.27
2018-09-11T12:00:52.809Z,29.47
2018-09-11T12:01:53.430Z,29.47
2018-09-11T12:02:54.018Z,29.59
2018-09-11T12:03:54.623Z,29.59
2018-09-11T12:04:55.223Z,29.66
2018-09-11T12:05:55.833Z,29.73
2018-09-11T12:06:56.487Z,29.78
2018-09-11T12:07:57.219Z,29.82
2018-09-11T12:08:57.746Z,29.86
2018-09-11T12:09:58.404Z,29.86
2018-09-11T12:10:59.006Z,30.02
2018-09-11T12:11:59.616Z,30.10
2018-09-11T12:13:00.224Z,30.18
2018-09-11T12:14:00.825Z,30.19
2018-09-11T12:15:01.437Z,30.24
2018-09-11T12:16:02.073Z,30.28
2018-09-11T12:17:02.715Z,30.37
2018-09-11T12:18:03.291Z,30.53
2018-09-11T12:19:03.895Z,30.50
2018-09-11T12:20:49.024Z,30.65
2018-09-11T12:21:49.630Z,30.66
2018-09-11T12:22:50.237Z,30.81
2018-09-11T12:23:50.845Z,30.90
2018-09-11T12:24:51.456Z,30.99
2018-09-11T12:25:52.113Z,31.10
2018-09-11T12:26:52.809Z,31.09
2018-09-11T12:27:53.380Z,31.20
2018-09-11T12:28:53.990Z,31.33
2018-09-11T12:29:54.642Z,31.42
2018-09-11T12:30:55.294Z,31.46
2018-09-11T12:31:55.861Z,31.47
2018-09-11T12:32:56.470Z,31.66
2018-09-11T12:33:57.079Z,31.61
2018-09-11T12:34:57.707Z,31.77
2018-09-11T12:35:58.333Z,31.87
2018-09-11T12:36:58.940Z,31.96
2018-09-11T12:37:59.550Z,32.00
2018-09-11T12:39:00.150Z,32.04
2018-09-11T12:40:00.761Z,32.18
2018-09-11T12:41:01.369Z,32.14
2018-09-11T12:42:02.023Z,32.27
2018-09-11T12:43:02.628Z,32.30
2018-09-11T12:44:03.239Z,32.33
2018-09-11T12:45:48.502Z,32.55
2018-09-11T12:46:49.268Z,32.64
2018-09-11T12:47:50.014Z,32.70
2018-09-11T12:48:50.361Z,32.70
2018-09-11T12:49:50.902Z,32.74
2018-09-11T12:50:51.514Z,32.89
2018-09-11T12:51:52.125Z,32.89
2018-09-11T12:52:52.732Z,32.97
2018-09-11T12:53:53.342Z,33.11
2018-09-11T12:54:53.951Z,33.12
2018-09-11T12:55:54.560Z,33.23
2018-09-11T12:56:55.170Z,33.24
2018-09-11T12:57:55.778Z,33.34
2018-09-11T12:58:56.385Z,33.42
2018-09-11T12:59:57.039Z,33.49
2018-09-11T13:00:57.645Z,33.57
2018-09-11T13:01:58.256Z,33.59
2018-09-11T13:02:58.917Z,33.67
2018-09-11T13:03:59.568Z,33.74
2018-09-11T13:05:00.182Z,33.80
2018-09-11T13:06:00.794Z,33.86
2018-09-11T13:07:01.399Z,33.84
2018-09-11T13:08:02.005Z,33.96
2018-09-11T13:09:02.659Z,33.96
2018-09-11T13:10:47.766Z,34.03
2018-09-11T13:11:48.350Z,34.06
2018-09-11T13:12:48.961Z,34.06
2018-09-11T13:13:49.566Z,34.11
2018-09-11T13:14:50.175Z,34.21
2018-09-11T13:15:50.782Z,34.33
2018-09-11T13:16:51.393Z,34.32
2018-09-11T13:17:51.998Z,34.42
2018-09-11T13:18:52.662Z,34.40
2018-09-11T13:19:53.269Z,34.38
2018-09-11T13:20:53.925Z,34.38
2018-09-11T13:21:54.537Z,34.54
2018-09-11T13:22:55.194Z,34.55
2018-09-11T13:23:55.803Z,34.67
2018-09-11T13:24:56.408Z,34.66
2018-09-11T13:25:57.011Z,34.67